createdAt,value
2019-05-16T00:01:40.757Z,12.90
2019-05-16T00:04:10.794Z,12.90
2019-05-16T00:06:40.890Z,12.90
2019-05-16T00:09:10.988Z,12.90
2019-05-16T00:11:41.112Z,12.90
2019-05-16T00:14:11.740Z,12.90
2019-05-16T00:16:41.786Z,12.90
2019-05-16T00:19:11.830Z,12.80
2019-05-16T00:21:41.885Z,12.80
2019-05-16T00:24:12.128Z,12.80
2019-05-16T00:26:42.256Z,12.90
2019-05-16T00:29:12.282Z,12.80
2019-05-16T00:31:42.398Z,12.80
2019-05-16T00:34:13.060Z,12.80
2019-05-16T00:36:43.182Z,12.80
2019-05-16T00:39:13.230Z,12.80
2019-05-16T00:41:43.456Z,12.80
2019-05-16T00:44:13.599Z,12.80
2019-05-16T00:46:43.710Z,12.80
2019-05-16T00:49:13.759Z,12.80
2019-05-16T00:51:43.762Z,12.80
2019-05-16T00:54:13.830Z,12.70
2019-05-16T00:56:45.150Z,12.70
2019-05-16T00:59:18.350Z,12.70
2019-05-16T01:01:49.970Z,12.70
2019-05-16T01:04:20.526Z,12.70
2019-05-16T01:06:50.561Z,12.70
2019-05-16T01:09:20.680Z,12.70
2019-05-16T01:11:51.112Z,12.70
2019-05-16T01:14:21.138Z,12.70
2019-05-16T01:16:51.566Z,12.70
2019-05-16T01:19:21.612Z,12.70
2019-05-16T01:21:51.728Z,12.70
2019-05-16T01:24:21.776Z,12.70
2019-05-16T01:26:51.822Z,12.70
2019-05-16T01:29:21.835Z,12.70
2019-05-16T01:31:52.168Z,12.70
2019-05-16T01:34:22.196Z,12.70
2019-05-16T01:36:52.526Z,12.70
2019-05-16T01:39:22.636Z,12.70
2019-05-16T01:41:53.048Z,12.70
2019-05-16T01:44:23.066Z,12.70
2019-05-16T01:46:53.294Z,12.60
2019-05-16T01:49:23.328Z,12.70
2019-05-16T01:51:53.736Z,12.60
2019-05-16T01:54:23.854Z,12.60
2019-05-16T01:56:53.884Z,12.60
2019-05-16T01:59:23.922Z,12.60
2019-05-16T02:01:54.064Z,12.60
2019-05-16T02:04:24.173Z,12.60
2019-05-16T02:06:55.028Z,12.60
2019-05-16T02:09:27.899Z,12.50
2019-05-16T02:11:58.900Z,12.60
2019-05-16T02:14:29.384Z,12.60
2019-05-16T02:16:59.497Z,12.60
2019-05-16T02:19:29.538Z,12.60
2019-05-16T02:22:00.002Z,12.50
2019-05-16T02:24:30.025Z,12.50
2019-05-16T02:27:00.077Z,12.50
2019-05-16T02:29:30.151Z,12.50
2019-05-16T02:32:01.974Z,12.50
2019-05-16T02:34:32.405Z,12.50
2019-05-16T02:37:18.985Z,12.50
2019-05-16T02:39:34.728Z,12.50
2019-05-16T02:42:04.859Z,12.50
2019-05-16T02:44:34.903Z,12.50
2019-05-16T02:47:05.059Z,12.50
2019-05-16T02:49:35.094Z,12.50
2019-05-16T02:52:05.758Z,12.50
2019-05-16T02:54:35.861Z,12.50
2019-05-16T02:57:11.919Z,12.50
2019-05-16T02:59:42.016Z,12.50
2019-05-16T03:02:12.359Z,12.50
2019-05-16T03:04:44.369Z,12.50
2019-05-16T03:07:32.882Z,12.50
2019-05-16T03:09:46.741Z,12.50
2019-05-16T03:12:21.155Z,12.40
2019-05-16T03:14:54.653Z,12.40
2019-05-16T03:17:26.006Z,12.40
2019-05-16T03:20:01.429Z,12.40
2019-05-16T03:22:31.716Z,12.40
2019-05-16T03:25:03.026Z,12.40
2019-05-16T03:27:36.566Z,12.40
2019-05-16T03:30:06.900Z,12.40
2019-05-16T03:32:43.962Z,12.40
2019-05-16T03:35:15.799Z,12.40
2019-05-16T03:37:55.013Z,12.40
2019-05-16T03:40:16.486Z,12.30
2019-05-16T03:42:46.566Z,12.30
2019-05-16T03:45:16.619Z,12.30
2019-05-16T03:47:46.753Z,12.30
2019-05-16T03:50:17.311Z,12.30
2019-05-16T03:52:50.572Z,12.30
2019-05-16T03:55:21.316Z,12.30
2019-05-16T03:57:51.747Z,12.30
2019-05-16T04:00:36.763Z,12.30
2019-05-16T04:03:06.829Z,12.20
2019-05-16T04:05:37.027Z,12.20
2019-05-16T04:08:15.215Z,12.20
2019-05-16T04:10:40.930Z,12.20
2019-05-16T04:13:11.633Z,12.20
2019-05-16T04:15:46.017Z,12.20
2019-05-16T04:18:16.159Z,12.20
2019-05-16T04:21:00.915Z,12.20
2019-05-16T04:23:31.311Z,12.20
2019-05-16T04:26:01.899Z,12.10
2019-05-16T04:28:32.174Z,12.10
2019-05-16T04:31:02.485Z,12.20
2019-05-16T04:33:33.220Z,12.20
2019-05-16T04:36:03.526Z,12.20
2019-05-16T04:38:41.011Z,12.10
2019-05-16T04:41:06.118Z,12.20
2019-05-16T04:43:36.162Z,12.20
2019-05-16T04:46:06.198Z,12.20
2019-05-16T04:48:36.314Z,12.10
2019-05-16T04:51:06.361Z,12.20
2019-05-16T04:53:36.472Z,12.20
2019-05-16T04:56:06.514Z,12.20
2019-05-16T04:58:36.539Z,12.20
2019-05-16T05:01:06.608Z,12.20
2019-05-16T05:03:36.970Z,12.20
2019-05-16T05:06:07.106Z,12.20
2019-05-16T05:08:50.626Z,12.20
2019-05-16T05:11:10.704Z,12.20
2019-05-16T05:13:41.257Z,12.20
2019-05-16T05:16:11.823Z,12.20
2019-05-16T05:18:42.158Z,12.20
2019-05-16T05:21:12.296Z,12.20
2019-05-16T05:23:42.600Z,12.20
2019-05-16T05:26:12.693Z,12.20
2019-05-16T05:28:42.723Z,12.20
2019-05-16T05:31:13.195Z,12.20
2019-05-16T05:33:43.249Z,12.20
2019-05-16T05:36:13.696Z,12.20
2019-05-16T05:38:44.868Z,12.20
2019-05-16T05:41:14.906Z,12.20
2019-05-16T05:43:45.001Z,12.20
2019-05-16T05:46:15.122Z,12.30
2019-05-16T05:48:45.256Z,12.20
2019-05-16T05:51:15.463Z,12.20
2019-05-16T05:53:45.520Z,12.20
2019-05-16T05:56:15.640Z,12.20
2019-05-16T05:58:46.060Z,12.20
2019-05-16T06:01:16.619Z,12.30
2019-05-16T06:03:47.089Z,12.30
2019-05-16T06:06:17.129Z,12.30
2019-05-16T06:08:47.243Z,12.30
2019-05-16T06:11:17.288Z,12.30
2019-05-16T06:13:49.797Z,12.30
2019-05-16T06:16:20.492Z,12.30
2019-05-16T06:18:50.863Z,12.30
2019-05-16T06:21:21.870Z,12.30
2019-05-16T06:23:53.037Z,12.30
2019-05-16T06:26:23.171Z,12.30
2019-05-16T06:28:53.650Z,12.30
2019-05-16T06:31:24.219Z,12.30
2019-05-16T06:33:54.319Z,12.30
2019-05-16T06:36:24.421Z,12.30
2019-05-16T06:38:54.908Z,12.30
2019-05-16T06:41:25.029Z,12.30
2019-05-16T06:43:55.465Z,12.30
2019-05-16T06:46:25.895Z,12.30
2019-05-16T06:48:55.987Z,12.30
2019-05-16T06:51:26.080Z,12.30
2019-05-16T06:53:56.198Z,12.40
2019-05-16T06:56:26.444Z,12.40
2019-05-16T06:58:56.616Z,12.40
2019-05-16T07:01:29.630Z,12.40
2019-05-16T07:04:00.089Z,12.40
2019-05-16T07:06:51.873Z,12.40
2019-05-16T07:09:04.968Z,12.40
2019-05-16T07:11:35.108Z,12.40
2019-05-16T07:14:05.196Z,12.40
2019-05-16T07:16:37.261Z,12.40
2019-05-16T07:19:07.410Z,12.40
2019-05-16T07:21:39.725Z,12.40
2019-05-16T07:24:10.873Z,12.40
2019-05-16T07:26:41.207Z,12.40
2019-05-16T07:29:11.264Z,12.40
2019-05-16T07:31:41.322Z,12.40
2019-05-16T07:34:14.392Z,12.50
2019-05-16T07:36:43.158Z,12.50
2019-05-16T07:39:13.201Z,12.50
2019-05-16T07:41:43.477Z,12.50
2019-05-16T07:44:13.533Z,12.60
2019-05-16T07:46:44.667Z,12.60
2019-05-16T07:49:15.241Z,12.60
2019-05-16T07:51:45.689Z,12.60
2019-05-16T07:54:16.118Z,12.60
2019-05-16T07:56:46.173Z,12.60
2019-05-16T07:59:17.381Z,12.60
2019-05-16T08:01:47.436Z,12.70
2019-05-16T08:04:19.854Z,12.70
2019-05-16T08:06:50.246Z,12.70
2019-05-16T08:09:21.812Z,12.70
2019-05-16T08:11:51.924Z,12.80
2019-05-16T08:14:22.092Z,12.80
2019-05-16T08:16:53.340Z,12.80
2019-05-16T08:19:25.379Z,12.80
2019-05-16T08:21:55.490Z,12.80
2019-05-16T08:24:25.670Z,12.80
2019-05-16T08:26:56.050Z,12.80
2019-05-16T08:29:26.230Z,12.80
2019-05-16T08:31:56.320Z,12.80
2019-05-16T08:34:26.395Z,12.80
2019-05-16T08:36:56.465Z,12.90
2019-05-16T08:39:26.492Z,12.90
2019-05-16T08:42:04.272Z,12.90
2019-05-16T08:44:31.719Z,12.90
2019-05-16T08:49:32.923Z,12.90
2019-05-16T08:52:03.306Z,12.90
2019-05-16T08:54:33.345Z,13.00
2019-05-16T08:57:24.369Z,13.00
2019-05-16T08:59:36.337Z,13.00
2019-05-16T09:02:06.474Z,13.10
2019-05-16T09:04:36.598Z,13.10
2019-05-16T09:07:06.709Z,13.10
2019-05-16T09:09:44.477Z,13.10
2019-05-16T09:10:30.558Z,12.90
2019-05-16T09:12:08.608Z,13.10
2019-05-16T09:14:39.196Z,13.20
2019-05-16T09:17:09.440Z,13.20
2019-05-16T09:19:39.548Z,13.20
2019-05-16T09:22:10.037Z,13.20
2019-05-16T09:24:40.562Z,13.20
2019-05-16T09:27:17.763Z,13.20
2019-05-16T09:29:42.821Z,13.30
2019-05-16T09:32:17.965Z,13.30
2019-05-16T09:34:47.636Z,13.30
2019-05-16T09:37:18.039Z,13.30
2019-05-16T09:39:48.307Z,13.30
2019-05-16T09:42:18.650Z,13.30
2019-05-16T09:44:48.993Z,13.30
2019-05-16T09:47:19.038Z,13.30
2019-05-16T09:49:49.063Z,13.40
2019-05-16T09:52:19.273Z,13.40
2019-05-16T09:54:49.411Z,13.40
2019-05-16T09:57:19.547Z,13.40
2019-05-16T09:59:49.656Z,13.40
2019-05-16T10:02:19.743Z,13.40
2019-05-16T10:04:49.775Z,13.50
2019-05-16T10:07:19.913Z,13.50
2019-05-16T10:09:50.344Z,13.50
2019-05-16T10:12:20.809Z,13.50
2019-05-16T10:14:51.325Z,13.50
2019-05-16T10:17:22.911Z,13.50
2019-05-16T10:19:53.308Z,13.60
2019-05-16T10:22:27.118Z,13.60
2019-05-16T10:24:57.272Z,13.60
2019-05-16T10:27:27.618Z,13.60
2019-05-16T10:30:01.025Z,13.60
2019-05-16T10:32:29.587Z,13.60
2019-05-16T10:34:59.650Z,13.70
2019-05-16T10:37:29.728Z,13.70
2019-05-16T10:40:00.072Z,13.70
2019-05-16T10:42:30.626Z,13.70
2019-05-16T10:45:00.813Z,13.70
2019-05-16T10:47:31.475Z,13.70
2019-05-16T10:50:01.712Z,13.70
2019-05-16T10:52:31.862Z,13.70
2019-05-16T10:55:03.241Z,13.80
2019-05-16T10:57:33.759Z,13.80
2019-05-16T11:00:16.094Z,13.80
2019-05-16T11:02:38.571Z,13.80
2019-05-16T11:05:25.675Z,13.80
2019-05-16T11:07:41.976Z,13.80
2019-05-16T11:10:12.298Z,13.90
2019-05-16T11:12:50.283Z,13.90
2019-05-16T11:15:17.170Z,13.90
2019-05-16T11:17:46.675Z,13.90
2019-05-16T11:20:20.399Z,14.00
2019-05-16T11:22:50.987Z,14.00
2019-05-16T11:25:28.829Z,14.00
2019-05-16T11:27:53.367Z,14.00
2019-05-16T11:30:24.224Z,14.10
2019-05-16T11:32:56.710Z,14.10
2019-05-16T11:35:27.286Z,14.10
2019-05-16T11:37:58.187Z,14.10
2019-05-16T11:40:30.302Z,14.10
2019-05-16T11:43:09.297Z,14.20
2019-05-16T11:45:33.188Z,14.20
2019-05-16T11:48:03.254Z,14.20
2019-05-16T11:50:33.294Z,14.20
2019-05-16T11:53:03.442Z,14.20
2019-05-16T11:55:37.039Z,14.30
2019-05-16T11:58:06.782Z,14.30
2019-05-16T12:00:37.432Z,14.30
2019-05-16T12:03:07.714Z,14.30
2019-05-16T12:05:37.847Z,14.30
2019-05-16T12:08:08.144Z,14.30
2019-05-16T12:10:38.397Z,14.40
2019-05-16T12:13:23.761Z,14.30
2019-05-16T12:15:40.175Z,14.30
2019-05-16T12:18:10.248Z,14.30
2019-05-16T12:20:41.255Z,14.40
2019-05-16T12:23:12.459Z,14.40
2019-05-16T12:25:42.601Z,14.40
2019-05-16T12:28:12.754Z,14.40
2019-05-16T12:30:42.781Z,14.40
2019-05-16T12:33:12.940Z,14.40
2019-05-16T12:35:43.053Z,14.50
2019-05-16T12:38:13.210Z,14.50
2019-05-16T12:40:43.595Z,14.50
2019-05-16T12:43:13.625Z,14.50
2019-05-16T12:45:43.647Z,14.50
2019-05-16T12:48:17.414Z,14.50
2019-05-16T12:50:48.032Z,14.50
2019-05-16T12:53:17.755Z,14.50
2019-05-16T12:55:47.965Z,14.50
2019-05-16T12:58:25.029Z,14.50
2019-05-16T13:00:57.993Z,14.50
2019-05-16T13:03:21.861Z,14.50
2019-05-16T13:05:52.248Z,14.50
2019-05-16T13:08:22.319Z,14.50
2019-05-16T13:10:52.357Z,14.50
2019-05-16T13:13:22.395Z,14.50
2019-05-16T13:15:52.515Z,14.50
2019-05-16T13:18:22.564Z,14.50
2019-05-16T13:20:52.595Z,14.50
2019-05-16T13:23:22.730Z,14.50
2019-05-16T13:25:52.836Z,14.50
2019-05-16T13:28:22.872Z,14.50
2019-05-16T13:30:53.338Z,14.50
2019-05-16T13:33:23.489Z,14.50
2019-05-16T13:35:53.548Z,14.50
2019-05-16T13:38:23.828Z,14.50
2019-05-16T13:40:53.941Z,14.50
2019-05-16T13:43:26.773Z,14.50
2019-05-16T13:45:57.608Z,14.50
2019-05-16T13:48:27.578Z,14.50
2019-05-16T13:51:10.566Z,14.50
2019-05-16T13:53:29.578Z,14.50
2019-05-16T13:55:59.625Z,14.50
2019-05-16T13:58:30.104Z,14.50
2019-05-16T14:01:00.140Z,14.50
2019-05-16T14:03:30.884Z,14.50
2019-05-16T14:06:01.026Z,14.50
2019-05-16T14:08:31.893Z,14.50
2019-05-16T14:11:02.656Z,14.50
2019-05-16T14:13:37.640Z,14.50
2019-05-16T14:16:07.560Z,14.50
2019-05-16T14:18:38.370Z,14.50
2019-05-16T14:21:08.557Z,14.50
2019-05-16T14:23:38.572Z,14.50
2019-05-16T14:26:08.725Z,14.50
2019-05-16T14:28:39.189Z,14.50
2019-05-16T14:31:09.723Z,14.50
2019-05-16T14:33:39.926Z,14.50
2019-05-16T14:36:10.000Z,14.50
2019-05-16T14:38:40.423Z,14.50
2019-05-16T14:41:10.471Z,14.50
2019-05-16T14:43:41.175Z,14.50
2019-05-16T14:46:11.226Z,14.50
2019-05-16T14:48:41.682Z,14.50
2019-05-16T14:51:12.205Z,14.50
2019-05-16T14:53:42.422Z,14.50
2019-05-16T14:56:12.483Z,14.50
2019-05-16T14:58:42.980Z,14.50
2019-05-16T15:01:13.128Z,14.50
2019-05-16T15:03:43.334Z,14.50
2019-05-16T15:06:13.376Z,14.50
2019-05-16T15:08:43.465Z,14.50
2019-05-16T15:11:14.658Z,14.50
2019-05-16T15:13:45.331Z,14.50
2019-05-16T15:16:16.916Z,14.50
2019-05-16T15:18:47.664Z,14.50
2019-05-16T15:21:18.245Z,14.50
2019-05-16T15:23:48.631Z,14.50
2019-05-16T15:26:18.828Z,14.50
2019-05-16T15:28:51.318Z,14.50
2019-05-16T15:31:20.679Z,14.50
2019-05-16T15:33:50.722Z,14.50
2019-05-16T15:36:20.942Z,14.50
2019-05-16T15:38:51.330Z,14.50
2019-05-16T15:41:21.835Z,14.50
2019-05-16T15:43:53.648Z,14.60
2019-05-16T15:46:26.525Z,14.60
2019-05-16T15:48:56.974Z,14.60
2019-05-16T15:51:28.914Z,14.50
2019-05-16T15:54:00.043Z,14.60
2019-05-16T15:56:30.688Z,14.60
2019-05-16T15:59:00.812Z,14.50
2019-05-16T16:01:31.339Z,14.60
2019-05-16T16:04:01.786Z,14.50
2019-05-16T16:06:32.092Z,14.50
2019-05-16T16:09:02.214Z,14.60
2019-05-16T16:11:34.005Z,14.60
2019-05-16T16:14:06.972Z,14.60
2019-05-16T16:16:37.902Z,14.60
2019-05-16T16:19:08.344Z,14.60
2019-05-16T16:21:40.416Z,14.60
2019-05-16T16:24:10.770Z,14.60
2019-05-16T16:26:41.468Z,14.60
2019-05-16T16:29:11.737Z,14.60
2019-05-16T16:31:42.645Z,14.60
2019-05-16T16:34:13.057Z,14.60
2019-05-16T16:36:43.464Z,14.60
2019-05-16T16:39:13.770Z,14.60
2019-05-16T16:41:44.010Z,14.60
2019-05-16T16:44:14.128Z,14.60
2019-05-16T16:46:46.651Z,14.60
2019-05-16T16:49:17.336Z,14.60
2019-05-16T16:51:48.212Z,14.60
2019-05-16T16:54:18.828Z,14.50
2019-05-16T16:56:49.019Z,14.50
2019-05-16T16:59:19.252Z,14.50
2019-05-16T17:01:49.375Z,14.60
2019-05-16T17:04:19.684Z,14.50
2019-05-16T17:06:49.980Z,14.50
2019-05-16T17:09:20.474Z,14.50
2019-05-16T17:11:50.940Z,14.50
2019-05-16T17:14:21.243Z,14.50
2019-05-16T17:16:51.507Z,14.50
2019-05-16T17:19:21.722Z,14.50
2019-05-16T17:22:06.105Z,14.50
2019-05-16T17:24:27.383Z,14.50
2019-05-16T17:26:57.953Z,14.50
2019-05-16T17:29:28.621Z,14.50
2019-05-16T17:32:05.875Z,14.50
2019-05-16T17:34:32.053Z,14.50
2019-05-16T17:37:02.273Z,14.50
2019-05-16T17:39:32.516Z,14.50
2019-05-16T17:42:02.761Z,14.50
2019-05-16T17:44:33.178Z,14.50
2019-05-16T17:47:03.472Z,14.50
2019-05-16T17:49:33.691Z,14.50
2019-05-16T17:52:04.212Z,14.50
2019-05-16T17:54:34.438Z,14.50
2019-05-16T17:57:04.739Z,14.50
2019-05-16T17:59:37.747Z,14.50
2019-05-16T18:02:07.102Z,14.50
2019-05-16T18:04:40.864Z,14.50
2019-05-16T18:07:09.600Z,14.50
2019-05-16T18:09:42.916Z,14.50
2019-05-16T18:12:11.845Z,14.50
2019-05-16T18:14:42.235Z,14.50
2019-05-16T18:17:12.445Z,14.50
2019-05-16T18:19:42.579Z,14.50
2019-05-16T18:22:13.148Z,14.50
2019-05-16T18:24:43.358Z,14.50
2019-05-16T18:27:13.446Z,14.50
2019-05-16T18:29:43.504Z,14.50
2019-05-16T18:32:13.694Z,14.50
2019-05-16T18:34:43.884Z,14.50
2019-05-16T18:37:14.102Z,14.50
2019-05-16T18:39:44.258Z,14.50
2019-05-16T18:42:16.616Z,14.50
2019-05-16T18:44:47.168Z,14.50
2019-05-16T18:47:17.514Z,14.50
2019-05-16T18:49:47.763Z,14.50
2019-05-16T18:52:17.956Z,14.50
2019-05-16T18:54:48.541Z,14.50
2019-05-16T18:57:18.653Z,14.50
2019-05-16T18:59:49.076Z,14.50
2019-05-16T19:02:19.235Z,14.50
2019-05-16T19:04:49.820Z,14.50
2019-05-16T19:07:20.450Z,14.50
2019-05-16T19:09:50.576Z,14.50
2019-05-16T19:12:20.676Z,14.50
2019-05-16T19:14:50.804Z,14.50
2019-05-16T19:17:24.607Z,14.40
2019-05-16T19:22:17.052Z,14.40
2019-05-16T19:24:47.181Z,14.40
2019-05-16T19:27:17.415Z,14.40
2019-05-16T19:29:47.704Z,14.40
2019-05-16T19:32:18.176Z,14.40
2019-05-16T19:34:49.265Z,14.40
2019-05-16T19:37:20.504Z,14.40
2019-05-16T19:39:50.611Z,14.50
2019-05-16T19:42:22.514Z,14.40
2019-05-16T19:44:53.214Z,14.40
2019-05-16T19:47:34.100Z,14.40
2019-05-16T19:49:56.989Z,14.40
2019-05-16T19:52:27.345Z,14.40
2019-05-16T19:54:57.586Z,14.40
2019-05-16T19:57:27.796Z,14.40
2019-05-16T19:59:58.045Z,14.40
2019-05-16T20:02:28.133Z,14.40
2019-05-16T20:04:58.407Z,14.40
2019-05-16T20:07:28.969Z,14.40
2019-05-16T20:09:59.075Z,14.40
2019-05-16T20:12:30.007Z,14.40
2019-05-16T20:15:08.102Z,14.40
2019-05-16T20:17:32.603Z,14.40
2019-05-16T20:20:03.450Z,14.40
2019-05-16T20:22:33.703Z,14.40
2019-05-16T20:25:03.884Z,14.40
2019-05-16T20:27:34.043Z,14.40
2019-05-16T20:30:06.684Z,14.40
2019-05-16T20:32:37.353Z,14.40
2019-05-16T20:35:08.895Z,14.40
2019-05-16T20:37:39.661Z,14.40
2019-05-16T20:40:12.430Z,14.40
2019-05-16T20:42:42.049Z,14.40
2019-05-16T20:45:12.563Z,14.40
2019-05-16T20:47:42.695Z,14.40
2019-05-16T20:50:13.411Z,14.40
2019-05-16T20:52:43.631Z,14.40
2019-05-16T20:55:17.396Z,14.40
2019-05-16T20:57:48.506Z,14.40
2019-05-16T21:00:19.865Z,14.40
2019-05-16T21:02:50.049Z,14.40
2019-05-16T21:05:20.220Z,14.40
2019-05-16T21:07:50.309Z,14.40
2019-05-16T21:10:20.559Z,14.40
2019-05-16T21:12:51.061Z,14.40
2019-05-16T21:15:21.164Z,14.40
2019-05-16T21:17:51.333Z,14.40
2019-05-16T21:20:21.335Z,14.40
2019-05-16T21:22:51.393Z,14.40
2019-05-16T21:25:21.480Z,14.40
2019-05-16T21:27:51.569Z,14.40
2019-05-16T21:30:21.897Z,14.40
2019-05-16T21:32:52.057Z,14.40
2019-05-16T21:35:22.615Z,14.40
2019-05-16T21:37:52.789Z,14.40
2019-05-16T21:40:23.168Z,14.30
2019-05-16T21:42:53.225Z,14.30
2019-05-16T21:45:23.389Z,14.30
2019-05-16T21:47:53.615Z,14.30
2019-05-16T21:50:24.609Z,14.30
2019-05-16T21:52:56.489Z,14.30
2019-05-16T21:55:29.717Z,14.30
2019-05-16T21:57:58.356Z,14.30
2019-05-16T22:00:37.553Z,14.30
2019-05-16T22:03:09.112Z,14.30
2019-05-16T22:05:39.229Z,14.30
2019-05-16T22:08:11.784Z,14.30
2019-05-16T22:10:41.136Z,14.30
2019-05-16T22:13:12.919Z,14.30
2019-05-16T22:15:43.183Z,14.30
2019-05-16T22:18:13.542Z,14.30
2019-05-16T22:20:43.970Z,14.30
2019-05-16T22:23:14.147Z,14.30
2019-05-16T22:25:44.255Z,14.30
2019-05-16T22:28:17.080Z,14.30
2019-05-16T22:30:46.601Z,14.30
2019-05-16T22:33:17.877Z,14.20
2019-05-16T22:35:49.548Z,14.20
2019-05-16T22:38:20.085Z,14.20
2019-05-16T22:40:50.225Z,14.20
2019-05-16T22:43:20.392Z,14.20
2019-05-16T22:45:50.553Z,14.20
2019-05-16T22:48:20.709Z,14.20
2019-05-16T22:50:50.845Z,14.10
2019-05-16T22:53:21.219Z,14.10
2019-05-16T22:55:51.335Z,14.10
2019-05-16T22:58:21.553Z,14.10
2019-05-16T23:00:51.688Z,14.10
2019-05-16T23:03:22.173Z,14.10
2019-05-16T23:05:52.523Z,14.10
2019-05-16T23:08:22.683Z,14.10
2019-05-16T23:10:53.037Z,14.10
2019-05-16T23:13:23.291Z,14.10
2019-05-16T23:15:53.585Z,14.10
2019-05-16T23:18:23.752Z,14.10
2019-05-16T23:20:54.176Z,14.00
2019-05-16T23:23:26.430Z,14.00
2019-05-16T23:25:56.920Z,14.00
2019-05-16T23:28:28.249Z,14.00
2019-05-16T23:30:58.347Z,14.00
2019-05-16T23:33:28.783Z,14.00
2019-05-16T23:35:58.859Z,14.00
2019-05-16T23:38:29.015Z,13.90
2019-05-16T23:40:59.142Z,13.90
2019-05-16T23:43:29.391Z,13.90
2019-05-16T23:45:59.496Z,13.90
2019-05-16T23:48:29.656Z,13.90
2019-05-16T23:51:00.048Z,13.90
2019-05-16T23:53:30.384Z,13.90
2019-05-16T23:56:00.774Z,13.90
2019-05-16T23:58:30.967Z,13.90
